Time;durP1;ratioP1;P1;durP2;ratioP2;P2;SDS_P1;SDS_P2;PMS_P1;PMS_P2;Temp;Humidity;BMP_temperature;BMP_pressure;BME280_temperature;BME280_humidity;BME280_pressure;Samples;Min_cycle;Max_cycle;Signal;HPM_P1;HPM_P2
2023/01/27 00:02:31;;;;;;;13.07;4.47;;;3.00;99.90;;;;;;7325893;32;20194;-60
2023/01/27 00:06:33;;;;;;;16.83;4.18;;;3.00;99.90;;;;;;7334036;32;20138;-60
2023/01/27 00:10:35;;;;;;;9.77;5.00;;;3.00;99.90;;;;;;7330442;32;20267;-60
2023/01/27 00:14:37;;;;;;;8.23;4.18;;;2.90;99.90;;;;;;7324235;32;20475;-60
2023/01/27 00:18:38;;;;;;;15.02;4.30;;;3.00;99.90;;;;;;7323752;32;20104;-60
2023/01/27 00:27:01;;;;;;;7.75;4.25;;;3.00;99.90;;;;;;7348828;32;20122;-60
2023/01/27 00:31:04;;;;;;;14.15;4.78;;;3.00;99.90;;;;;;7332172;32;20465;-59
2023/01/27 00:35:07;;;;;;;12.55;4.25;;;3.20;99.90;;;;;;7341991;32;20111;-61
2023/01/27 00:39:10;;;;;;;9.80;4.53;;;3.10;99.90;;;;;;7346529;32;20486;-60
2023/01/27 00:43:12;;;;;;;13.48;4.95;;;3.10;99.90;;;;;;7346647;32;20664;-60
2023/01/27 00:47:14;;;;;;;14.15;4.90;;;3.10;99.90;;;;;;7340448;32;20118;-59
2023/01/27 00:51:16;;;;;;;12.15;5.30;;;3.10;99.90;;;;;;7325554;32;20152;-59
2023/01/27 00:55:19;;;;;;;17.10;4.87;;;3.10;99.90;;;;;;7333785;32;22401;-59
2023/01/27 00:59:21;;;;;;;9.57;5.10;;;3.20;99.90;;;;;;7334346;32;20192;-60
2023/01/27 01:03:24;;;;;;;14.07;7.90;;;3.20;99.90;;;;;;7330001;32;20126;-60
2023/01/27 01:07:25;;;;;;;15.75;6.70;;;3.20;99.90;;;;;;7338256;32;20646;-61
2023/01/27 01:11:27;;;;;;;16.55;7.55;;;3.20;99.90;;;;;;7343873;32;20556;-60
2023/01/27 01:15:29;;;;;;;14.68;6.62;;;3.20;99.90;;;;;;7345138;32;20550;-60
2023/01/27 01:19:31;;;;;;;20.40;6.60;;;3.20;99.90;;;;;;7347042;32;20125;-59
2023/01/27 01:23:36;;;;;;;13.73;6.30;;;3.20;99.90;;;;;;7335052;32;20266;-60
2023/01/27 01:27:38;;;;;;;13.77;6.43;;;3.20;99.90;;;;;;7342360;32;20244;-61
2023/01/27 01:31:39;;;;;;;15.13;8.93;;;3.30;99.90;;;;;;7342874;32;20183;-60
2023/01/27 01:35:42;;;;;;;17.23;7.20;;;3.20;99.90;;;;;;7342491;32;20108;-60
2023/01/27 01:39:44;;;;;;;15.13;7.90;;;3.20;99.90;;;;;;7342186;32;20149;-61
2023/01/27 01:43:46;;;;;;;15.65;7.90;;;3.30;99.90;;;;;;7344429;32;20228;-62
2023/01/27 01:47:48;;;;;;;15.00;8.05;;;3.30;99.90;;;;;;7342272;32;20184;-61
2023/01/27 01:51:55;;;;;;;19.35;8.02;;;3.30;99.90;;;;;;7340753;32;22218;-60
2023/01/27 01:55:59;;;;;;;;;;;3.30;99.90;;;;;;7337042;32;20528;-60
2023/01/27 02:00:08;;;;;;;17.65;8.82;;;3.20;99.90;;;;;;7337561;32;20421;-60
2023/01/27 02:04:20;;;;;;;21.80;9.27;;;3.30;99.90;;;;;;7337445;32;20176;-61
2023/01/27 02:08:54;;;;;;;21.60;10.07;;;3.30;99.90;;;;;;7337173;32;20207;-59
2023/01/27 02:12:56;;;;;;;17.58;9.50;;;3.20;99.90;;;;;;7314681;32;20114;-60
2023/01/27 02:16:57;;;;;;;20.60;10.60;;;3.30;99.90;;;;;;7338525;32;20107;-60
2023/01/27 02:21:00;;;;;;;18.50;10.45;;;3.30;99.90;;;;;;7344595;32;20119;-59
2023/01/27 02:25:25;;;;;;;19.17;10.15;;;3.20;99.90;;;;;;7315794;32;20179;-60
2023/01/27 02:29:27;;;;;;;27.27;14.18;;;3.20;99.90;;;;;;7345526;32;20096;-60
2023/01/27 02:33:29;;;;;;;23.12;13.02;;;3.20;99.90;;;;;;7341088;32;20099;-60
2023/01/27 02:37:32;;;;;;;19.58;11.12;;;3.10;99.90;;;;;;7331404;32;20117;-60
2023/01/27 02:41:41;;;;;;;19.20;9.95;;;3.00;99.90;;;;;;7342288;32;20130;-60
2023/01/27 02:45:45;;;;;;;18.17;10.25;;;2.90;99.90;;;;;;7348701;32;20126;-60
2023/01/27 02:49:48;;;;;;;19.60;9.90;;;2.80;99.90;;;;;;7340611;32;20107;-59
2023/01/27 02:53:50;;;;;;;18.45;9.60;;;2.80;99.90;;;;;;7349954;32;20159;-59
2023/01/27 02:57:51;;;;;;;19.17;9.85;;;2.80;99.90;;;;;;7345946;32;20599;-59
2023/01/27 03:01:53;;;;;;;16.60;8.68;;;2.80;99.90;;;;;;7334036;32;20194;-59
2023/01/27 03:05:55;;;;;;;15.20;8.45;;;2.80;99.90;;;;;;7339934;32;20111;-61
2023/01/27 03:09:57;;;;;;;14.63;8.13;;;2.70;99.90;;;;;;7348560;32;20103;-61
2023/01/27 03:13:58;;;;;;;12.05;6.90;;;2.60;99.90;;;;;;7344524;32;20272;-61
2023/01/27 03:18:09;;;;;;;15.65;7.18;;;2.60;99.90;;;;;;7343495;32;20202;-61
2023/01/27 03:22:10;;;;;;;11.55;6.35;;;2.60;99.90;;;;;;7342923;32;20597;-61
2023/01/27 03:26:12;;;;;;;16.12;7.05;;;2.60;99.90;;;;;;7319820;32;20306;-59
2023/01/27 03:30:14;;;;;;;17.42;7.57;;;2.60;99.90;;;;;;7336477;32;20457;-61
2023/01/27 03:34:16;;;;;;;13.62;7.28;;;2.60;99.90;;;;;;7344225;32;20199;-62
2023/01/27 03:46:58;;;;;;;13.02;7.97;;;2.60;99.90;;;;;;7341069;32;20317;-59
2023/01/27 03:51:04;;;;;;;11.45;6.78;;;2.60;99.90;;;;;;7346027;32;20127;-59
2023/01/27 03:55:08;;;;;;;11.57;7.03;;;2.60;99.90;;;;;;7344393;32;20129;-59
2023/01/27 03:59:09;;;;;;;15.75;7.78;;;2.70;99.90;;;;;;7324175;32;21166;-59
2023/01/27 04:07:35;;;;;;;13.80;7.28;;;2.70;99.90;;;;;;7344116;32;20115;-59
2023/01/27 04:15:58;;;;;;;13.10;6.97;;;2.70;99.90;;;;;;7346872;32;20112;-59
2023/01/27 04:20:00;;;;;;;13.60;7.70;;;2.70;99.90;;;;;;7339545;32;20124;-59
2023/01/27 04:24:03;;;;;;;16.85;8.18;;;2.80;99.90;;;;;;7339872;32;20111;-59
2023/01/27 04:28:05;;;;;;;15.60;9.02;;;2.80;99.90;;;;;;7338452;32;20182;-60
2023/01/27 04:32:09;;;;;;;15.93;8.25;;;2.80;99.90;;;;;;7336044;32;20119;-60
2023/01/27 04:36:15;;;;;;;18.48;9.35;;;2.70;99.90;;;;;;7330076;32;20112;-59
2023/01/27 04:40:16;;;;;;;17.40;10.05;;;2.60;99.90;;;;;;7335383;32;20218;-60
2023/01/27 04:44:21;;;;;;;17.20;10.50;;;2.60;99.90;;;;;;7329870;32;20186;-60
2023/01/27 04:48:23;;;;;;;16.05;9.30;;;2.60;99.90;;;;;;7330722;32;20131;-60
2023/01/27 04:52:25;;;;;;;17.27;10.10;;;2.60;99.90;;;;;;7330036;32;20156;-59
2023/01/27 04:56:35;;;;;;;18.85;10.10;;;2.60;99.90;;;;;;7342833;32;20162;-62
2023/01/27 05:00:37;;;;;;;16.62;9.55;;;2.60;99.90;;;;;;7341286;32;20215;-61
2023/01/27 05:04:38;;;;;;;18.73;10.02;;;2.80;99.90;;;;;;7341104;32;20192;-59
2023/01/27 05:08:40;;;;;;;17.35;9.73;;;2.80;99.90;;;;;;7334422;32;20107;-59
2023/01/27 05:12:42;;;;;;;19.35;10.55;;;2.80;99.90;;;;;;7333325;32;20111;-60
2023/01/27 05:16:44;;;;;;;18.75;10.63;;;2.70;99.90;;;;;;7325442;32;20340;-59
2023/01/27 05:20:46;;;;;;;18.35;9.95;;;2.80;99.90;;;;;;7333032;32;20209;-61
2023/01/27 05:24:48;;;;;;;19.83;10.43;;;2.90;99.90;;;;;;7337900;32;20108;-60
2023/01/27 05:28:51;;;;;;;17.92;10.57;;;2.80;99.90;;;;;;7332173;32;20494;-60
2023/01/27 05:32:52;;;;;;;18.23;10.35;;;2.80;99.90;;;;;;7343007;32;20193;-60
2023/01/27 05:36:54;;;;;;;22.70;10.73;;;2.80;99.90;;;;;;7329040;32;20682;-60
2023/01/27 05:41:02;;;;;;;16.95;10.60;;;2.70;99.90;;;;;;7335671;32;20170;-61
2023/01/27 05:45:05;;;;;;;22.40;11.12;;;2.90;99.90;;;;;;7329172;32;20119;-60
2023/01/27 05:49:08;;;;;;;18.85;11.25;;;2.90;99.90;;;;;;7342170;32;20118;-60
2023/01/27 05:53:10;;;;;;;15.73;10.00;;;2.80;99.90;;;;;;7336133;32;20182;-60
2023/01/27 05:57:11;;;;;;;18.83;9.65;;;2.80;99.90;;;;;;7339838;32;20251;-60
2023/01/27 06:01:15;;;;;;;16.08;9.70;;;2.80;99.90;;;;;;7337528;32;20234;-60
2023/01/27 06:05:17;;;;;;;17.02;10.13;;;2.80;99.90;;;;;;7343705;32;20126;-59
2023/01/27 06:09:19;;;;;;;17.45;9.98;;;2.80;99.90;;;;;;7331156;32;20183;-60
2023/01/27 06:13:22;;;;;;;16.00;9.32;;;2.90;99.90;;;;;;7345264;32;20529;-60
2023/01/27 06:17:25;;;;;;;14.98;9.55;;;2.90;99.90;;;;;;7342347;32;20211;-60
2023/01/27 06:21:26;;;;;;;17.55;11.05;;;2.90;99.90;;;;;;7344544;32;20563;-60
2023/01/27 06:25:29;;;;;;;16.25;10.32;;;3.00;99.90;;;;;;7333438;32;20179;-59
2023/01/27 06:29:30;;;;;;;15.50;9.95;;;3.00;99.90;;;;;;7341937;32;20112;-59
2023/01/27 06:33:33;;;;;;;19.75;11.05;;;3.00;99.90;;;;;;7339210;32;20189;-59
2023/01/27 06:37:34;;;;;;;14.30;9.80;;;3.00;99.90;;;;;;7342034;32;20115;-59
2023/01/27 06:41:37;;;;;;;14.15;9.15;;;3.10;99.90;;;;;;7341634;32;20095;-60
2023/01/27 06:45:39;;;;;;;16.92;10.93;;;3.10;99.90;;;;;;7346983;32;20603;-59
2023/01/27 06:49:41;;;;;;;16.17;10.13;;;3.10;99.90;;;;;;7342932;32;20140;-59
2023/01/27 06:53:42;;;;;;;13.27;9.30;;;3.10;99.90;;;;;;7349205;32;20492;-58
2023/01/27 06:57:47;;;;;;;15.15;9.93;;;3.00;99.90;;;;;;7338389;32;20180;-60
2023/01/27 07:01:48;;;;;;;17.45;11.90;;;3.20;99.90;;;;;;7341205;32;20234;-60
2023/01/27 07:05:51;;;;;;;14.60;10.35;;;3.10;99.90;;;;;;7349809;32;20107;-60
2023/01/27 07:09:53;;;;;;;16.30;10.07;;;3.20;99.90;;;;;;7341429;32;20711;-60
2023/01/27 07:13:55;;;;;;;13.48;9.48;;;3.20;99.90;;;;;;7344379;32;20096;-59
2023/01/27 07:18:01;;;;;;;13.75;8.88;;;3.20;99.90;;;;;;7341226;32;20096;-60
2023/01/27 07:22:02;;;;;;;13.88;9.23;;;3.20;99.90;;;;;;7341940;32;20104;-61
2023/01/27 07:26:04;;;;;;;15.02;9.23;;;3.20;99.90;;;;;;7340227;32;20138;-60
2023/01/27 07:30:20;;;;;;;13.20;9.35;;;3.20;99.90;;;;;;7335654;32;20125;-62
2023/01/27 07:34:21;;;;;;;14.18;9.35;;;3.20;99.90;;;;;;7344301;32;20439;-62
2023/01/27 07:38:23;;;;;;;14.65;10.23;;;3.20;99.90;;;;;;7342756;32;20216;-61
2023/01/27 07:42:25;;;;;;;16.33;10.32;;;3.20;99.90;;;;;;7338018;32;20217;-61
2023/01/27 07:46:26;;;;;;;16.98;11.30;;;3.20;99.90;;;;;;7347316;32;20138;-61
2023/01/27 07:50:28;;;;;;;13.02;9.50;;;3.20;99.90;;;;;;7336150;32;20686;-61
2023/01/27 07:54:30;;;;;;;14.23;9.90;;;3.20;99.90;;;;;;7339702;32;20168;-62
2023/01/27 07:58:32;;;;;;;14.82;9.40;;;3.30;99.90;;;;;;7340376;32;20112;-61
2023/01/27 08:02:33;;;;;;;11.40;8.05;;;3.30;99.90;;;;;;7340499;32;20373;-61
2023/01/27 08:06:38;;;;;;;14.18;9.63;;;3.40;99.90;;;;;;7341661;32;20739;-61
2023/01/27 08:10:40;;;;;;;12.68;9.20;;;3.30;99.90;;;;;;7337046;32;20130;-61
2023/01/27 08:14:42;;;;;;;14.45;9.95;;;3.40;99.90;;;;;;7340511;32;20122;-60
2023/01/27 08:18:44;;;;;;;13.23;10.85;;;3.40;99.90;;;;;;7339486;32;20587;-63
2023/01/27 08:22:45;;;;;;;10.95;8.43;;;3.40;99.90;;;;;;7339896;32;20214;-60
2023/01/27 08:26:47;;;;;;;12.50;8.50;;;3.40;99.90;;;;;;7336897;32;20294;-62
2023/01/27 08:30:52;;;;;;;11.38;8.45;;;3.40;99.90;;;;;;7338492;32;20426;-60
2023/01/27 08:34:54;;;;;;;12.90;8.73;;;3.50;99.90;;;;;;7329383;32;20467;-60
2023/01/27 08:38:56;;;;;;;13.10;8.93;;;3.50;99.90;;;;;;7339597;32;20528;-60
2023/01/27 08:42:59;;;;;;;11.85;8.73;;;3.60;99.90;;;;;;7335272;32;20176;-60
2023/01/27 08:47:00;;;;;;;11.82;9.30;;;3.60;99.90;;;;;;7343466;32;20164;-59
2023/01/27 08:51:03;;;;;;;20.62;13.32;;;3.70;99.90;;;;;;7340450;32;20126;-59
2023/01/27 08:55:05;;;;;;;13.32;9.95;;;3.70;99.90;;;;;;7340686;32;20347;-60
2023/01/27 08:59:07;;;;;;;18.05;12.77;;;3.80;99.90;;;;;;7336941;32;20155;-60
2023/01/27 09:03:08;;;;;;;16.65;11.55;;;3.80;99.90;;;;;;7338817;32;20107;-60
2023/01/27 09:07:10;;;;;;;14.85;10.35;;;3.80;99.90;;;;;;7339577;32;20236;-60
2023/01/27 09:11:15;;;;;;;13.38;9.10;;;3.90;99.90;;;;;;7341747;32;20610;-60
2023/01/27 09:15:17;;;;;;;12.82;9.73;;;3.80;99.90;;;;;;7344222;32;20244;-60
2023/01/27 09:19:18;;;;;;;12.52;9.13;;;3.90;99.90;;;;;;7332578;32;20253;-60
2023/01/27 09:23:20;;;;;;;11.80;9.00;;;4.00;99.90;;;;;;7339632;32;20596;-63
2023/01/27 09:27:22;;;;;;;13.77;10.48;;;4.10;99.90;;;;;;7338146;32;20130;-63
2023/01/27 09:31:39;;;;;;;12.60;9.75;;;4.10;99.90;;;;;;7341960;32;20257;-63
2023/01/27 09:35:45;;;;;;;10.77;8.63;;;4.20;99.90;;;;;;7337484;32;20171;-63
2023/01/27 09:39:54;;;;;;;13.52;10.52;;;4.20;99.90;;;;;;7339882;32;20157;-63
2023/01/27 09:44:13;;;;;;;12.50;9.68;;;4.10;99.90;;;;;;7339048;32;20261;-63
2023/01/27 09:48:32;;;;;;;13.68;10.25;;;4.20;99.90;;;;;;7343553;32;20554;-61
2023/01/27 09:53:12;;;;;;;14.32;9.77;;;4.30;99.90;;;;;;7343106;32;20194;-62
2023/01/27 09:57:35;;;;;;;12.70;10.05;;;4.20;99.90;;;;;;7345260;32;20304;-62
2023/01/27 10:02:07;;;;;;;15.93;10.57;;;4.30;99.90;;;;;;7345495;32;20237;-62
2023/01/27 10:06:43;;;;;;;14.65;10.15;;;4.30;99.90;;;;;;7339261;32;20110;-62
2023/01/27 10:11:03;;;;;;;12.27;9.40;;;4.30;99.90;;;;;;7341164;32;20133;-61
2023/01/27 10:15:20;;;;;;;12.43;9.82;;;4.50;99.90;;;;;;7341877;32;20310;-61
2023/01/27 10:19:27;;;;;;;12.07;9.07;;;4.50;99.90;;;;;;7336348;32;20126;-62
2023/01/27 10:23:33;;;;;;;14.98;9.98;;;4.60;99.90;;;;;;7336258;32;20305;-61
2023/01/27 10:27:36;;;;;;;11.10;9.20;;;4.60;99.90;;;;;;7336975;32;20178;-60
2023/01/27 10:31:59;;;;;;;10.38;8.73;;;4.60;99.90;;;;;;7330005;32;20700;-60
2023/01/27 10:36:16;;;;;;;13.48;8.48;;;4.50;99.90;;;;;;7336828;32;20099;-63
2023/01/27 10:40:40;;;;;;;11.13;8.60;;;4.40;99.90;;;;;;7342462;32;20120;-62
2023/01/27 10:45:03;;;;;;;11.43;9.07;;;4.50;99.90;;;;;;7340595;32;20348;-61
2023/01/27 10:49:11;;;;;;;13.25;8.85;;;4.60;99.90;;;;;;7342335;32;20194;-62
2023/01/27 10:53:20;;;;;;;12.80;9.32;;;4.60;99.90;;;;;;7342611;32;20111;-60
2023/01/27 10:57:55;;;;;;;12.07;8.80;;;4.60;99.90;;;;;;7336825;32;20172;-62
2023/01/27 11:02:05;;;;;;;11.68;8.48;;;4.60;99.90;;;;;;7331947;32;20104;-61
2023/01/27 11:06:18;;;;;;;14.80;9.25;;;4.50;99.90;;;;;;7340632;32;20502;-61
2023/01/27 11:10:21;;;;;;;12.75;9.75;;;4.50;99.90;;;;;;7349265;32;20237;-64
2023/01/27 11:14:29;;;;;;;12.20;9.10;;;4.50;99.90;;;;;;7337747;32;20118;-61
2023/01/27 11:18:36;;;;;;;14.65;9.25;;;4.50;99.90;;;;;;7332661;32;20115;-62
2023/01/27 11:23:15;;;;;;;12.82;9.07;;;4.40;99.90;;;;;;7344332;32;20107;-62
2023/01/27 11:27:26;;;;;;;14.00;9.10;;;4.40;99.90;;;;;;7324120;32;20174;-62
2023/01/27 11:31:36;;;;;;;14.27;10.13;;;4.50;99.90;;;;;;7342664;32;20099;-62
2023/01/27 11:35:39;;;;;;;14.20;9.77;;;4.50;99.90;;;;;;7335353;32;20678;-62
2023/01/27 11:39:40;;;;;;;13.90;9.77;;;4.60;99.90;;;;;;7338960;32;20134;-61
2023/01/27 11:43:42;;;;;;;12.15;9.32;;;4.60;99.90;;;;;;7329158;32;20352;-62
2023/01/27 11:47:47;;;;;;;14.68;9.40;;;4.50;99.90;;;;;;7337088;32;20356;-62
2023/01/27 11:51:49;;;;;;;12.68;8.95;;;4.60;99.90;;;;;;7325709;32;20202;-62
2023/01/27 11:56:05;;;;;;;14.05;9.57;;;4.70;99.90;;;;;;7343266;32;20123;-62
2023/01/27 12:00:23;;;;;;;12.63;9.25;;;4.60;99.90;;;;;;7334841;32;20548;-63
2023/01/27 12:04:47;;;;;;;12.07;8.57;;;4.60;99.90;;;;;;7334279;32;20529;-63
2023/01/27 12:08:49;;;;;;;11.25;8.93;;;4.70;99.90;;;;;;7339027;32;20129;-62
2023/01/27 12:12:52;;;;;;;13.02;9.05;;;4.60;99.90;;;;;;7326448;32;20129;-62
2023/01/27 12:16:53;;;;;;;14.27;8.60;;;4.60;99.90;;;;;;7341704;32;20130;-61
2023/01/27 12:21:01;;;;;;;15.27;9.05;;;4.60;99.90;;;;;;7311800;32;20630;-62
2023/01/27 12:25:04;;;;;;;;;;;4.70;99.90;;;;;;7335494;32;20195;-62
2023/01/27 12:29:17;;;;;;;11.90;8.10;;;4.60;99.90;;;;;;7346025;32;20024;-64
2023/01/27 12:33:43;;;;;;;11.43;8.13;;;4.60;99.90;;;;;;7331563;32;20178;-62
2023/01/27 12:37:46;;;;;;;13.32;9.00;;;4.60;99.90;;;;;;7332838;32;20468;-62
2023/01/27 12:41:49;;;;;;;15.27;9.27;;;4.60;99.90;;;;;;7335949;32;20123;-62
2023/01/27 12:46:11;;;;;;;10.55;7.65;;;4.60;99.90;;;;;;7328163;32;20234;-62
2023/01/27 12:50:31;;;;;;;10.20;7.30;;;4.60;99.90;;;;;;7338736;32;20482;-61
2023/01/27 12:54:33;;;;;;;11.18;7.90;;;4.70;99.90;;;;;;7341838;32;20229;-62
2023/01/27 12:58:42;;;;;;;14.23;9.02;;;4.80;99.90;;;;;;7339639;32;20601;-62
2023/01/27 13:02:45;;;;;;;9.75;6.00;;;4.80;99.90;;;;;;7323454;32;21401;-60
2023/01/27 13:07:07;;;;;;;7.87;5.95;;;4.80;99.90;;;;;;7345686;32;20229;-62
2023/01/27 13:11:09;;;;;;;10.38;6.12;;;4.80;99.90;;;;;;7342255;32;20129;-62
2023/01/27 13:15:27;;;;;;;7.90;5.53;;;4.90;99.90;;;;;;7344202;32;20430;-62
2023/01/27 13:19:41;;;;;;;6.78;5.47;;;4.80;99.90;;;;;;7350399;32;20099;-61
2023/01/27 13:23:47;;;;;;;7.80;5.25;;;4.80;99.90;;;;;;7340532;32;20146;-60
2023/01/27 13:27:52;;;;;;;6.90;5.53;;;4.90;99.90;;;;;;7336459;32;20194;-62
2023/01/27 13:32:06;;;;;;;6.43;4.90;;;4.80;99.90;;;;;;7347140;32;20165;-60
2023/01/27 13:36:20;;;;;;;5.80;4.50;;;4.80;99.90;;;;;;7346703;32;20126;-59
2023/01/27 13:40:43;;;;;;;5.30;4.00;;;4.80;99.90;;;;;;7343810;32;20126;-62
2023/01/27 13:44:57;;;;;;;7.95;4.43;;;4.70;99.90;;;;;;7347511;32;20358;-60
2023/01/27 13:49:29;;;;;;;5.78;4.47;;;4.80;99.90;;;;;;7347033;32;20803;-62
2023/01/27 13:53:31;;;;;;;6.60;4.68;;;4.80;99.90;;;;;;7345149;32;20354;-62
2023/01/27 13:57:53;;;;;;;7.57;5.20;;;4.70;99.90;;;;;;7338781;32;20275;-61
2023/01/27 14:02:24;;;;;;;6.32;4.93;;;4.70;99.90;;;;;;7341655;32;20198;-61
2023/01/27 14:07:04;;;;;;;5.50;4.70;;;4.60;99.90;;;;;;7344053;32;20278;-63
2023/01/27 14:11:39;;;;;;;9.85;5.82;;;4.70;99.90;;;;;;7338135;32;20804;-61
2023/01/27 14:16:01;;;;;;;11.00;8.23;;;4.70;99.90;;;;;;7343526;32;20264;-61
2023/01/27 14:20:15;;;;;;;5.62;4.55;;;4.90;99.90;;;;;;7341047;32;20135;-61
2023/01/27 14:24:39;;;;;;;5.95;4.10;;;5.00;99.90;;;;;;7345629;32;20112;-63
2023/01/27 14:29:07;;;;;;;4.30;3.60;;;4.90;99.90;;;;;;7344054;32;20513;-63
2023/01/27 14:33:41;;;;;;;3.03;2.35;;;4.80;99.90;;;;;;7335052;32;20190;-61
2023/01/27 14:38:12;;;;;;;3.17;2.20;;;4.80;99.90;;;;;;7342143;32;20184;-62
2023/01/27 14:42:18;;;;;;;2.65;2.30;;;4.60;99.90;;;;;;7343416;32;20099;-62
2023/01/27 14:46:34;;;;;;;3.45;2.42;;;4.70;99.90;;;;;;7343911;32;20147;-62
2023/01/27 14:50:50;;;;;;;4.30;2.42;;;4.60;99.90;;;;;;7334767;32;20312;-61
2023/01/27 14:55:15;;;;;;;3.83;2.83;;;4.70;99.90;;;;;;7332556;32;20127;-62
2023/01/27 14:59:40;;;;;;;3.58;2.75;;;4.60;99.90;;;;;;7341688;32;20122;-62
2023/01/27 15:04:06;;;;;;;3.53;2.97;;;4.50;99.90;;;;;;7338799;32;20701;-62
2023/01/27 15:08:55;;;;;;;3.53;2.67;;;4.50;99.90;;;;;;7343369;32;20130;-62
2023/01/27 15:12:57;;;;;;;4.90;3.15;;;4.50;99.90;;;;;;7337719;32;20316;-62
2023/01/27 15:17:10;;;;;;;3.17;2.75;;;4.30;99.90;;;;;;7343186;32;20506;-62
2023/01/27 15:21:14;;;;;;;3.25;2.70;;;4.30;99.90;;;;;;7335868;32;20581;-60
2023/01/27 15:25:16;;;;;;;3.10;2.45;;;4.20;99.90;;;;;;7340163;32;20300;-61
2023/01/27 15:29:26;;;;;;;5.50;3.22;;;4.20;99.90;;;;;;7339422;32;20130;-61
2023/01/27 15:33:50;;;;;;;4.60;3.30;;;4.20;99.90;;;;;;7328344;32;20175;-62
2023/01/27 15:38:04;;;;;;;3.67;3.37;;;4.10;99.90;;;;;;7337115;32;20204;-61
2023/01/27 15:42:06;;;;;;;4.45;3.08;;;4.20;99.90;;;;;;7343655;32;20212;-61
2023/01/27 15:46:24;;;;;;;4.15;3.75;;;4.10;99.90;;;;;;7335379;32;20127;-63
2023/01/27 15:50:29;;;;;;;4.15;3.45;;;4.10;99.90;;;;;;7341412;32;20234;-61
2023/01/27 15:54:33;;;;;;;4.15;3.33;;;4.10;99.90;;;;;;7335970;32;20148;-62
2023/01/27 15:58:42;;;;;;;4.87;3.75;;;4.10;99.90;;;;;;7342508;32;20118;-62
2023/01/27 16:02:49;;;;;;;4.15;3.72;;;4.00;99.90;;;;;;7331707;32;20170;-61
2023/01/27 16:07:02;;;;;;;;;;;4.00;99.90;;;;;;7341905;32;20226;-61
2023/01/27 16:11:29;;;;;;;5.55;4.20;;;3.90;99.90;;;;;;7336952;32;20026;-61
2023/01/27 16:15:32;;;;;;;4.78;3.95;;;3.90;99.90;;;;;;7344142;32;20154;-61
2023/01/27 16:19:43;;;;;;;5.05;4.55;;;3.90;99.90;;;;;;7339099;32;20182;-61
2023/01/27 16:23:57;;;;;;;4.93;4.43;;;3.80;99.90;;;;;;7335154;32;20119;-59
2023/01/27 16:28:23;;;;;;;5.07;4.30;;;3.80;99.90;;;;;;7336771;32;20331;-59
2023/01/27 16:32:36;;;;;;;5.05;4.07;;;3.80;99.90;;;;;;7334498;32;20608;-60
2023/01/27 16:36:38;;;;;;;5.30;4.57;;;3.80;99.90;;;;;;7338353;32;20348;-60
2023/01/27 16:40:45;;;;;;;4.85;4.35;;;3.80;99.90;;;;;;7331993;32;20271;-60
2023/01/27 16:44:50;;;;;;;5.03;4.15;;;3.80;99.90;;;;;;7334254;32;20111;-61
2023/01/27 16:48:52;;;;;;;5.30;3.87;;;3.70;99.90;;;;;;7348611;32;20182;-60
2023/01/27 16:52:54;;;;;;;5.87;4.00;;;3.80;99.90;;;;;;7344459;32;20149;-60
2023/01/27 16:56:57;;;;;;;4.72;3.90;;;3.70;99.90;;;;;;7344025;32;20312;-59
2023/01/27 17:01:00;;;;;;;4.87;4.10;;;3.70;99.90;;;;;;7344125;32;20115;-59
2023/01/27 17:05:14;;;;;;;5.50;3.65;;;3.70;99.90;;;;;;7346632;32;20239;-59
2023/01/27 17:09:30;;;;;;;5.25;3.72;;;3.80;99.90;;;;;;7347090;32;20310;-60
2023/01/27 17:13:43;;;;;;;6.62;3.58;;;3.80;99.90;;;;;;7338936;32;20171;-60
2023/01/27 17:17:47;;;;;;;6.70;3.85;;;3.80;99.90;;;;;;7341824;32;20202;-60
2023/01/27 17:21:53;;;;;;;3.85;3.15;;;3.80;99.90;;;;;;7341730;32;20419;-60
2023/01/27 17:25:55;;;;;;;4.78;3.55;;;3.80;99.90;;;;;;7322839;32;20100;-60
2023/01/27 17:30:25;;;;;;;3.90;3.47;;;3.70;99.90;;;;;;7331447;32;20168;-60
2023/01/27 17:34:27;;;;;;;6.70;3.87;;;3.70;99.90;;;;;;7335778;32;20117;-60
2023/01/27 17:38:45;;;;;;;4.85;3.58;;;3.70;99.90;;;;;;7347287;32;20119;-60
2023/01/27 17:42:48;;;;;;;4.45;3.92;;;3.60;99.90;;;;;;7346866;32;20178;-60
2023/01/27 17:46:51;;;;;;;4.85;4.05;;;3.70;99.90;;;;;;7338183;32;20636;-59
2023/01/27 17:50:52;;;;;;;4.72;4.20;;;3.70;99.90;;;;;;7347292;32;20178;-59
2023/01/27 17:54:54;;;;;;;4.95;4.15;;;3.70;99.90;;;;;;7345945;32;20218;-59
2023/01/27 17:59:03;;;;;;;4.97;3.95;;;3.70;99.90;;;;;;7346575;32;20198;-59
2023/01/27 18:03:17;;;;;;;6.37;4.75;;;3.70;99.90;;;;;;7345977;32;20635;-60
2023/01/27 18:07:18;;;;;;;6.85;4.87;;;3.60;99.90;;;;;;7344973;32;21958;-59
2023/01/27 18:11:30;;;;;;;8.75;5.65;;;3.50;99.90;;;;;;7348042;32;20145;-59
2023/01/27 18:15:46;;;;;;;5.75;4.62;;;3.60;99.90;;;;;;7346880;32;20121;-59
2023/01/27 18:19:50;;;;;;;7.03;5.18;;;3.60;99.90;;;;;;7344234;32;20452;-60
2023/01/27 18:23:55;;;;;;;6.70;5.57;;;3.60;99.90;;;;;;7340888;32;20123;-59
2023/01/27 18:27:58;;;;;;;6.95;5.87;;;3.60;99.90;;;;;;7336936;32;20277;-61
2023/01/27 18:32:28;;;;;;;6.97;5.30;;;3.50;99.90;;;;;;7339215;32;20473;-60
2023/01/27 18:36:34;;;;;;;7.25;6.25;;;3.40;99.90;;;;;;7341838;32;20111;-60
2023/01/27 18:40:36;;;;;;;7.45;6.25;;;3.50;99.90;;;;;;7345145;32;20235;-61
2023/01/27 18:44:38;;;;;;;7.05;5.57;;;3.40;99.90;;;;;;7348228;32;20103;-62
2023/01/27 18:48:39;;;;;;;7.15;5.78;;;3.40;99.90;;;;;;7344087;32;20178;-60
2023/01/27 18:52:42;;;;;;;8.27;5.80;;;3.40;99.90;;;;;;7327883;32;20126;-60
2023/01/27 18:56:43;;;;;;;8.23;6.03;;;3.40;99.90;;;;;;7349149;32;20216;-61
2023/01/27 19:00:53;;;;;;;6.22;5.60;;;3.40;99.90;;;;;;7345623;32;20248;-61
2023/01/27 19:04:55;;;;;;;6.72;5.28;;;3.30;99.90;;;;;;7338506;32;20103;-60
2023/01/27 19:08:57;;;;;;;8.65;5.12;;;3.40;99.90;;;;;;7343238;32;20194;-59
2023/01/27 19:13:00;;;;;;;6.25;5.32;;;3.30;99.90;;;;;;7346324;32;20225;-60
2023/01/27 19:17:08;;;;;;;7.85;5.00;;;3.30;99.90;;;;;;7341746;32;20170;-60
2023/01/27 19:21:13;;;;;;;6.85;5.25;;;3.20;99.90;;;;;;7334245;32;20108;-61
2023/01/27 19:25:15;;;;;;;6.32;5.53;;;3.20;99.90;;;;;;7343061;32;20170;-60
2023/01/27 19:29:17;;;;;;;6.78;5.30;;;3.30;99.90;;;;;;7332458;32;20182;-60
2023/01/27 19:33:21;;;;;;;8.50;6.10;;;3.30;99.90;;;;;;7338516;32;20166;-59
2023/01/27 19:37:23;;;;;;;7.47;5.80;;;3.30;99.90;;;;;;7332362;32;20130;-60
2023/01/27 19:41:25;;;;;;;7.18;5.75;;;3.40;99.90;;;;;;7338878;32;20603;-61
2023/01/27 19:45:27;;;;;;;8.52;5.65;;;3.40;99.90;;;;;;7335732;32;20311;-62
2023/01/27 19:49:28;;;;;;;8.32;6.07;;;3.30;99.90;;;;;;7340037;32;20132;-60
2023/01/27 19:53:31;;;;;;;8.00;5.32;;;3.30;99.90;;;;;;7338273;32;20437;-61
2023/01/27 19:57:34;;;;;;;7.53;5.15;;;3.30;99.90;;;;;;7332963;32;20127;-61
2023/01/27 20:01:36;;;;;;;6.87;4.87;;;3.30;99.90;;;;;;7341702;32;20236;-61
2023/01/27 20:05:37;;;;;;;8.68;4.95;;;3.30;99.90;;;;;;7339531;32;20119;-60
2023/01/27 20:09:39;;;;;;;5.47;4.43;;;3.30;99.90;;;;;;7345874;32;20640;-61
2023/01/27 20:13:41;;;;;;;5.85;4.40;;;3.40;99.90;;;;;;7339835;32;20107;-61
2023/01/27 20:17:43;;;;;;;7.05;4.20;;;3.40;99.90;;;;;;7338510;32;21734;-61
2023/01/27 20:21:45;;;;;;;7.28;4.12;;;3.40;99.90;;;;;;7337462;32;20134;-61
2023/01/27 20:25:47;;;;;;;6.15;3.58;;;3.40;99.90;;;;;;7342228;32;20321;-63
2023/01/27 20:29:48;;;;;;;5.87;4.22;;;3.40;99.90;;;;;;7339009;32;20108;-60
2023/01/27 20:33:51;;;;;;;6.03;4.00;;;3.30;99.90;;;;;;7344549;32;20347;-61
2023/01/27 20:37:53;;;;;;;7.05;4.12;;;3.20;99.90;;;;;;7332316;32;20144;-64
2023/01/27 20:41:55;;;;;;;5.57;4.05;;;3.30;99.90;;;;;;7336908;32;20123;-64
2023/01/27 20:46:04;;;;;;;5.68;4.10;;;3.20;99.90;;;;;;7334521;32;20206;-62
2023/01/27 20:50:08;;;;;;;5.30;4.10;;;3.20;99.90;;;;;;7341073;32;20130;-61
2023/01/27 20:54:11;;;;;;;10.77;4.40;;;3.20;99.90;;;;;;7341675;32;20138;-61
2023/01/27 20:58:12;;;;;;;6.93;4.15;;;3.20;99.90;;;;;;7327296;32;20115;-62
2023/01/27 21:02:15;;;;;;;7.85;5.22;;;3.10;99.90;;;;;;7340943;32;20139;-61
2023/01/27 21:06:18;;;;;;;7.18;5.07;;;3.10;99.90;;;;;;7334833;32;20266;-62
2023/01/27 21:10:20;;;;;;;7.97;5.87;;;3.20;99.90;;;;;;7345186;32;20141;-62
2023/01/27 21:14:22;;;;;;;9.30;6.50;;;3.10;99.90;;;;;;7339698;32;20104;-61
2023/01/27 21:18:24;;;;;;;8.18;6.12;;;3.20;99.90;;;;;;7328670;32;20107;-60
2023/01/27 21:22:26;;;;;;;8.57;5.47;;;3.20;99.90;;;;;;7350012;32;20125;-61
2023/01/27 21:26:27;;;;;;;9.82;5.70;;;3.10;99.90;;;;;;7345689;32;20195;-62
2023/01/27 21:30:29;;;;;;;8.63;6.57;;;3.10;99.90;;;;;;7346727;32;20171;-62
2023/01/27 21:34:31;;;;;;;7.55;5.47;;;3.20;99.90;;;;;;7347920;32;21466;-61
2023/01/27 21:38:32;;;;;;;7.37;5.37;;;3.20;99.90;;;;;;7330208;32;20127;-61
2023/01/27 21:46:54;;;;;;;7.50;5.68;;;3.20;99.90;;;;;;7348176;32;20126;-61
2023/01/27 21:50:56;;;;;;;7.97;6.20;;;3.30;99.90;;;;;;7346674;32;20122;-63
2023/01/27 21:55:00;;;;;;;7.30;6.12;;;3.30;99.90;;;;;;7343729;32;20259;-61
2023/01/27 21:59:01;;;;;;;8.40;5.87;;;3.20;99.90;;;;;;7340547;32;20532;-61